Time;durP1;ratioP1;P1;durP2;ratioP2;P2;SDS_P1;SDS_P2;PMS_P1;PMS_P2;Temp;Humidity;BMP_temperature;BMP_pressure;BME280_temperature;BME280_humidity;BME280_pressure;Samples;Min_cycle;Max_cycle;Signal;HPM_P1;HPM_P2
2022/08/19 00:00:40;;;;;;;;;;;;;;;;;;6210377;22;20490;-91
2022/08/19 00:03:06;;;;;;;;;;;;;;;;;;6237024;22;19926;-91
2022/08/19 00:05:34;;;;;;;;;;;;;;;;;;6263608;22;20006;-91
2022/08/19 00:08:00;;;;;;;;;;;;;;;;;;6238233;22;20287;-91
2022/08/19 00:10:29;;;;;;;;;;;;;;;;;;6237593;22;19934;-91
2022/08/19 00:12:56;;;;;;;;;;;;;;;;;;6215024;22;19919;-90
2022/08/19 00:15:22;;;;;;;;;;;;;;;;;;6237800;22;19915;-91
2022/08/19 00:17:49;;;;;;;;;;;;;;;;;;6241819;22;19926;-91
2022/08/19 00:20:17;;;;;;;;;;;;;;;;;;6237973;22;19925;-90
2022/08/19 00:22:44;;;;;;;;;;;;;;;;;;6238069;22;19919;-90
2022/08/19 00:25:10;;;;;;;;;;;;;;;;;;6214530;22;19965;-90
2022/08/19 00:27:37;;;;;;;;;;;;;;;;;;6238252;22;20019;-90
2022/08/19 00:30:04;;;;;;;;;;;;;;;;;;6214969;22;19926;-90
2022/08/19 00:32:34;;;;;;;;;;;;;;;;;;6212047;22;19919;-91
2022/08/19 00:35:01;;;;;;;;;;;;;;;;;;6254168;22;19991;-90
2022/08/19 00:37:38;;;;;;;;;;;;;;;;;;6268418;22;19922;-90
2022/08/19 00:40:04;;;;;;;;;;;;;;;;;;6243225;22;19927;-90
2022/08/19 00:42:46;;;;;;;;;;;;;;;;;;6294503;22;20247;-90
2022/08/19 00:45:13;;;;;;;;;;;;;;;;;;6243141;22;20367;-90
2022/08/19 00:47:40;;;;;;;;;;;;;;;;;;6241278;22;19926;-90
2022/08/19 00:50:06;;;;;;;;;;;;;;;;;;6243554;22;19915;-90
2022/08/19 00:52:33;;;;;;;;;;;;;;;;;;6267195;22;19915;-90
2022/08/19 00:55:00;;;;;;;;;;;;;;;;;;6267981;22;19926;-90
2022/08/19 00:57:26;;;;;;;;;;;;;;;;;;6267668;22;19915;-90
2022/08/19 00:59:52;;;;;;;;;;;;;;;;;;6242717;22;19926;-91
2022/08/19 01:02:20;;;;;;;;;;;;;;;;;;6242909;22;19922;-91
2022/08/19 01:04:50;;;;;;;;;;;;;;;;;;6269684;22;19923;-90
2022/08/19 01:07:17;;;;;;;;;;;;;;;;;;6268687;22;19990;-91
2022/08/19 01:09:44;;;;;;;;;;;;;;;;;;6264877;22;19926;-90
2022/08/19 01:12:11;;;;;;;;;;;;;;;;;;6295688;22;19918;-90
2022/08/19 01:14:42;;;;;;;;;;;;;;;;;;6267523;22;19919;-90
2022/08/19 01:17:09;;;;;;;;;;;;;;;;;;6243166;22;19919;-91
2022/08/19 01:19:35;;;;;;;;;;;;;;;;;;6292130;22;20030;-91
2022/08/19 01:22:02;;;;;;;;;;;;;;;;;;6270179;22;19951;-90
2022/08/19 01:24:30;;;;;;;;;;;;;;;;;;6270416;22;19921;-90
2022/08/19 01:26:57;;;;;;;;;;;;;;;;;;6247460;22;19915;-90
2022/08/19 01:29:24;;;;;;;;;;;;;;;;;;6268181;22;19937;-90
2022/08/19 01:31:52;;;;;;;;;;;;;;;;;;6266819;22;20351;-90
2022/08/19 01:34:19;;;;;;;;;;;;;;;;;;6269002;22;19919;-91
2022/08/19 01:36:47;;;;;;;;;;;;;;;;;;6242224;22;20401;-91
2022/08/19 01:39:14;;;;;;;;;;;;;;;;;;6244380;22;19994;-90
2022/08/19 01:41:39;;;;;;;;;;;;;;;;;;6241726;22;19918;-90
2022/08/19 01:44:13;;;;;;;;;;;;;;;;;;6266994;22;19958;-91
2022/08/19 01:46:40;;;;;;;;;;;;;;;;;;6265653;22;19919;-91
2022/08/19 01:49:07;;;;;;;;;;;;;;;;;;6269094;22;19966;-90
2022/08/19 01:51:35;;;;;;;;;;;;;;;;;;6291453;22;19919;-91
2022/08/19 01:54:02;;;;;;;;;;;;;;;;;;6243516;22;20025;-91
2022/08/19 01:56:29;;;;;;;;;;;;;;;;;;6242248;22;19919;-91
2022/08/19 01:58:55;;;;;;;;;;;;;;;;;;6295989;22;19923;-91
2022/08/19 02:01:21;;;;;;;;;;;;;;;;;;6266086;22;19925;-91
2022/08/19 02:03:51;;;;;;;;;;;;;;;;;;6217251;22;19954;-91
2022/08/19 02:06:19;;;;;;;;;;;;;;;;;;6273371;22;19937;-91
2022/08/19 02:08:52;;;;;;;;;;;;;;;;;;6299247;22;19919;-90
2022/08/19 02:11:20;;;;;;;;;;;;;;;;;;6241739;22;19915;-90
2022/08/19 02:13:49;;;;;;;;;;;;;;;;;;6296297;22;20504;-90
2022/08/19 02:16:15;;;;;;;;;;;;;;;;;;6270758;22;19926;-90
2022/08/19 02:18:41;;;;;;;;;;;;;;;;;;6240494;22;19949;-90
2022/08/19 02:21:08;;;;;;;;;;;;;;;;;;6246140;22;19918;-91
2022/08/19 02:23:35;;;;;;;;;;;;;;;;;;6242723;22;19919;-90
2022/08/19 02:26:02;;;;;;;;;;;;;;;;;;6270392;22;19915;-90
2022/08/19 02:28:28;;;;;;;;;;;;;;;;;;6242437;22;19918;-90
2022/08/19 02:30:55;;;;;;;;;;;;;;;;;;6242400;22;20018;-91
2022/08/19 02:33:21;;;;;;;;;;;;;;;;;;6266540;22;20001;-90
2022/08/19 02:35:50;;;;;;;;;;;;;;;;;;6270146;22;19919;-91
2022/08/19 02:38:27;;;;;;;;;;;;;;;;;;6271494;22;19919;-90
2022/08/19 02:40:54;;;;;;;;;;;;;;;;;;6267342;22;20259;-90
2022/08/19 02:43:22;;;;;;;;;;;;;;;;;;6265177;22;19922;-91
2022/08/19 02:45:49;;;;;;;;;;;;;;;;;;6244110;22;20346;-90
2022/08/19 02:48:17;;;;;;;;;;;;;;;;;;6244293;22;19926;-90
2022/08/19 02:50:46;;;;;;;;;;;;;;;;;;6241743;22;19947;-90
2022/08/19 02:53:12;;;;;;;;;;;;;;;;;;6271736;22;19926;-90
2022/08/19 02:55:40;;;;;;;;;;;;;;;;;;6295206;22;19934;-91
2022/08/19 02:58:07;;;;;;;;;;;;;;;;;;6271796;22;19929;-91
2022/08/19 03:00:34;;;;;;;;;;;;;;;;;;6240317;22;19926;-90
2022/08/19 03:03:01;;;;;;;;;;;;;;;;;;6242050;22;20011;-90
2022/08/19 03:05:28;;;;;;;;;;;;;;;;;;6242200;22;19926;-90
2022/08/19 03:07:55;;;;;;;;;;;;;;;;;;6270248;22;19922;-90
2022/08/19 03:10:21;;;;;;;;;;;;;;;;;;6265490;22;19968;-90
2022/08/19 03:12:47;;;;;;;;;;;;;;;;;;6291073;22;19962;-90
2022/08/19 03:15:15;;;;;;;;;;;;;;;;;;6267467;22;19919;-90
2022/08/19 03:17:41;;;;;;;;;;;;;;;;;;6265225;22;20409;-90
2022/08/19 03:20:09;;;;;;;;;;;;;;;;;;6293455;22;19919;-90
2022/08/19 03:22:37;;;;;;;;;;;;;;;;;;6241396;22;19926;-91
2022/08/19 03:25:02;;;;;;;;;;;;;;;;;;6245754;22;19915;-90
2022/08/19 03:27:30;;;;;;;;;;;;;;;;;;6237666;22;19954;-91
2022/08/19 03:29:56;;;;;;;;;;;;;;;;;;6269313;22;19922;-90
2022/08/19 03:32:29;;;;;;;;;;;;;;;;;;6241618;22;20314;-90
2022/08/19 03:34:56;;;;;;;;;;;;;;;;;;6270101;22;19923;-90
2022/08/19 03:37:24;;;;;;;;;;;;;;;;;;6241538;22;19989;-90
2022/08/19 03:39:51;;;;;;;;;;;;;;;;;;6244587;22;19919;-89
2022/08/19 03:42:18;;;;;;;;;;;;;;;;;;6271270;22;19918;-90
2022/08/19 03:44:44;;;;;;;;;;;;;;;;;;6241553;22;19980;-90
2022/08/19 03:47:16;;;;;;;;;;;;;;;;;;6268696;22;20410;-89
2022/08/19 03:49:44;;;;;;;;;;;;;;;;;;6240657;22;20223;-90
2022/08/19 03:52:11;;;;;;;;;;;;;;;;;;6244189;22;19919;-90
2022/08/19 03:54:38;;;;;;;;;;;;;;;;;;6266649;22;20461;-90
2022/08/19 03:57:19;;;;;;;;;;;;;;;;;;6297906;22;19925;-91
2022/08/19 03:59:51;;;;;;;;;;;;;;;;;;6245646;22;19930;-91
2022/08/19 04:02:18;;;;;;;;;;;;;;;;;;6244101;22;19915;-91
2022/08/19 04:04:45;;;;;;;;;;;;;;;;;;6268368;22;19930;-90
2022/08/19 04:07:14;;;;;;;;;;;;;;;;;;6244512;22;19919;-90
2022/08/19 04:09:42;;;;;;;;;;;;;;;;;;6295460;22;20460;-90
2022/08/19 04:12:08;;;;;;;;;;;;;;;;;;6270383;22;19919;-90
2022/08/19 04:14:35;;;;;;;;;;;;;;;;;;6266103;22;19964;-90
2022/08/19 04:17:04;;;;;;;;;;;;;;;;;;6269644;22;19964;-90
2022/08/19 04:19:42;;;;;;;;;;;;;;;;;;6268296;22;19919;-90
2022/08/19 04:22:11;;;;;;;;;;;;;;;;;;6296168;22;19918;-90
2022/08/19 04:24:57;;;;;;;;;;;;;;;;;;6275038;22;19922;-90
2022/08/19 04:27:24;;;;;;;;;;;;;;;;;;6267500;22;19915;-90
2022/08/19 04:29:50;;;;;;;;;;;;;;;;;;6243068;22;20340;-90
2022/08/19 04:32:17;;;;;;;;;;;;;;;;;;6267799;22;19919;-90
2022/08/19 04:34:44;;;;;;;;;;;;;;;;;;6238354;22;20251;-90
2022/08/19 04:37:12;;;;;;;;;;;;;;;;;;6241849;22;20354;-90
2022/08/19 04:42:40;;;;;;;;;;;;;;;;;;6265544;22;19993;-89
2022/08/19 04:45:16;;;;;;;;;;;;;;;;;;6269308;22;20077;-90
2022/08/19 04:47:44;;;;;;;;;;;;;;;;;;6240950;22;19918;-90
2022/08/19 04:50:11;;;;;;;;;;;;;;;;;;6268465;22;20541;-90
2022/08/19 04:52:45;;;;;;;;;;;;;;;;;;6265309;22;20004;-90
2022/08/19 04:55:27;;;;;;;;;;;;;;;;;;6293920;22;19926;-91
2022/08/19 04:57:54;;;;;;;;;;;;;;;;;;6245136;22;19926;-90
2022/08/19 05:00:23;;;;;;;;;;;;;;;;;;6211539;22;19927;-90
2022/08/19 05:02:49;;;;;;;;;;;;;;;;;;6243426;22;19914;-90
2022/08/19 05:05:17;;;;;;;;;;;;;;;;;;6244750;22;19993;-90
2022/08/19 05:07:44;;;;;;;;;;;;;;;;;;6241047;22;19918;-90
2022/08/19 05:10:12;;;;;;;;;;;;;;;;;;6244592;22;20021;-90
2022/08/19 05:12:39;;;;;;;;;;;;;;;;;;6266057;22;19946;-89
2022/08/19 05:15:08;;;;;;;;;;;;;;;;;;6242806;22;20343;-90
2022/08/19 05:17:35;;;;;;;;;;;;;;;;;;6239863;22;19919;-90
2022/08/19 05:22:49;;;;;;;;;;;;;;;;;;6269961;22;19915;-90
2022/08/19 05:25:18;;;;;;;;;;;;;;;;;;6243436;22;19919;-89
2022/08/19 05:27:44;;;;;;;;;;;;;;;;;;6241953;22;19918;-90
2022/08/19 05:30:11;;;;;;;;;;;;;;;;;;6244058;22;19967;-90
2022/08/19 05:32:38;;;;;;;;;;;;;;;;;;6241783;22;19990;-90
2022/08/19 05:35:05;;;;;;;;;;;;;;;;;;6269017;22;19919;-89
2022/08/19 05:37:32;;;;;;;;;;;;;;;;;;6241381;22;19915;-90
2022/08/19 05:39:59;;;;;;;;;;;;;;;;;;6243305;22;19922;-89
2022/08/19 05:42:27;;;;;;;;;;;;;;;;;;6267724;22;19926;-90
2022/08/19 05:44:56;;;;;;;;;;;;;;;;;;6271969;22;19919;-90
2022/08/19 05:47:24;;;;;;;;;;;;;;;;;;6268409;22;20331;-90
2022/08/19 05:49:50;;;;;;;;;;;;;;;;;;6245996;22;19926;-90
2022/08/19 05:52:16;;;;;;;;;;;;;;;;;;6270671;22;20243;-90
2022/08/19 05:54:47;;;;;;;;;;;;;;;;;;6243825;22;20326;-89
2022/08/19 05:57:15;;;;;;;;;;;;;;;;;;6271599;22;19926;-91
2022/08/19 05:59:54;;;;;;;;;;;;;;;;;;6299016;22;20067;-89
2022/08/19 06:02:22;;;;;;;;;;;;;;;;;;6268511;22;20327;-90
2022/08/19 06:04:49;;;;;;;;;;;;;;;;;;6246109;22;19919;-90
2022/08/19 06:07:16;;;;;;;;;;;;;;;;;;6246706;22;19921;-90
2022/08/19 06:09:44;;;;;;;;;;;;;;;;;;6268469;22;19922;-90
2022/08/19 06:12:11;;;;;;;;;;;;;;;;;;6244950;22;19950;-90
2022/08/19 06:14:41;;;;;;;;;;;;;;;;;;6242772;22;19964;-90
2022/08/19 06:17:08;;;;;;;;;;;;;;;;;;6271185;22;19941;-89
2022/08/19 06:19:36;;;;;;;;;;;;;;;;;;6269547;22;19926;-90
2022/08/19 06:22:06;;;;;;;;;;;;;;;;;;6243585;22;19990;-90
2022/08/19 06:24:42;;;;;;;;;;;;;;;;;;6267927;22;19938;-90
2022/08/19 06:27:10;;;;;;;;;;;;;;;;;;6241777;22;19940;-90
2022/08/19 06:29:40;;;;;;;;;;;;;;;;;;6242715;22;19919;-90
2022/08/19 06:32:06;;;;;;;;;;;;;;;;;;6242927;22;19947;-90
2022/08/19 06:34:33;;;;;;;;;;;;;;;;;;6296699;22;20267;-90
2022/08/19 06:37:00;;;;;;;;;;;;;;;;;;6270527;22;19930;-90
2022/08/19 06:39:29;;;;;;;;;;;;;;;;;;6269016;22;20583;-90
2022/08/19 06:42:03;;;;;;;;;;;;;;;;;;6245749;22;19980;-90
2022/08/19 06:44:35;;;;;;;;;;;;;;;;;;6298740;22;20357;-90
2022/08/19 06:47:02;;;;;;;;;;;;;;;;;;6299913;22;19921;-90
2022/08/19 06:49:30;;;;;;;;;;;;;;;;;;6297486;22;19919;-90
2022/08/19 06:51:58;;;;;;;;;;;;;;;;;;6270853;22;19922;-89
2022/08/19 06:54:26;;;;;;;;;;;;;;;;;;6269316;22;19922;-90
2022/08/19 06:56:53;;;;;;;;;;;;;;;;;;6246279;22;19919;-89
2022/08/19 06:59:22;;;;;;;;;;;;;;;;;;6245096;22;19952;-89
2022/08/19 07:01:49;;;;;;;;;;;;;;;;;;6241861;22;19994;-89
2022/08/19 07:04:15;;;;;;;;;;;;;;;;;;6245250;22;19925;-90
2022/08/19 07:06:42;;;;;;;;;;;;;;;;;;6238282;22;19926;-90
2022/08/19 07:09:10;;;;;;;;;;;;;;;;;;6245146;22;19919;-90
2022/08/19 07:11:37;;;;;;;;;;;;;;;;;;6263733;22;19919;-89
2022/08/19 07:14:17;;;;;;;;;;;;;;;;;;6266941;22;19963;-90
2022/08/19 07:16:45;;;;;;;;;;;;;;;;;;6236769;22;19998;-90
2022/08/19 07:19:12;;;;;;;;;;;;;;;;;;6261781;22;19919;-89
2022/08/19 07:21:38;;;;;;;;;;;;;;;;;;6262030;22;19983;-90
2022/08/19 07:24:05;;;;;;;;;;;;;;;;;;6241229;22;20013;-90
2022/08/19 07:26:32;;;;;;;;;;;;;;;;;;6262337;22;19925;-90
2022/08/19 07:29:01;;;;;;;;;;;;;;;;;;6267694;22;19922;-90
2022/08/19 07:31:27;;;;;;;;;;;;;;;;;;6290329;22;19918;-90
2022/08/19 07:33:55;;;;;;;;;;;;;;;;;;6240477;22;19922;-90
2022/08/19 07:36:21;;;;;;;;;;;;;;;;;;6263804;22;19946;-90
2022/08/19 07:39:02;;;;;;;;;;;;;;;;;;6227795;23;20018;-90
2022/08/19 07:41:31;;;;;;;;;;;;;;;;;;6201291;23;19946;-90
2022/08/19 07:43:58;;;;;;;;;;;;;;;;;;6205512;23;19916;-89
2022/08/19 07:46:26;;;;;;;;;;;;;;;;;;6174892;23;20363;-90
2022/08/19 07:48:54;;;;;;;;;;;;;;;;;;6204997;23;19915;-90
2022/08/19 07:51:21;;;;;;;;;;;;;;;;;;6179548;23;19961;-90
2022/08/19 07:54:06;;;;;;;;;;;;;;;;;;6208422;23;20414;-90
2022/08/19 07:56:34;;;;;;;;;;;;;;;;;;6171719;23;19919;-90
2022/08/19 07:59:04;;;;;;;;;;;;;;;;;;6201657;23;19931;-91
2022/08/19 08:01:32;;;;;;;;;;;;;;;;;;6224125;23;19951;-91
2022/08/19 08:09:45;;;;;;;;;;;;;;;;;;6225624;22;20055;-90
2022/08/19 08:12:11;;;;;;;;;;;;;;;;;;6266693;22;19926;-88
2022/08/19 08:14:39;;;;;;;;;;;;;;;;;;6266613;22;19990;-87
2022/08/19 08:17:06;;;;;;;;;;;;;;;;;;6243515;22;19968;-88
2022/08/19 08:19:34;;;;;;;;;;;;;;;;;;6239670;22;19972;-87
2022/08/19 08:22:06;;;;;;;;;;;;;;;;;;6242428;22;19925;-89
2022/08/19 08:24:36;;;;;;;;;;;;;;;;;;6292361;22;19926;-88
2022/08/19 08:27:03;;;;;;;;;;;;;;;;;;6243623;22;19914;-88
2022/08/19 08:29:29;;;;;;;;;;;;;;;;;;6240892;22;20029;-88
2022/08/19 08:31:57;;;;;;;;;;;;;;;;;;6242903;22;19958;-89
2022/08/19 08:34:27;;;;;;;;;;;;;;;;;;6291746;22;19926;-88
2022/08/19 08:36:54;;;;;;;;;;;;;;;;;;6172434;22;1873483;-88
2022/08/19 08:39:21;;;;;;;;;;;;;;;;;;6267746;22;19923;-89
2022/08/19 08:41:50;;;;;;;;;;;;;;;;;;6298545;22;19915;-88
2022/08/19 08:44:18;;;;;;;;;;;;;;;;;;6242408;22;20243;-87
2022/08/19 08:47:00;;;;;;;;;;;;;;;;;;6295588;22;19926;-89
2022/08/19 08:49:26;;;;;;;;;;;;;;;;;;6234551;22;19918;-90
2022/08/19 08:51:53;;;;;;;;;;;;;;;;;;6267859;22;20092;-89
2022/08/19 08:54:19;;;;;;;;;;;;;;;;;;6265639;22;19919;-91
2022/08/19 08:56:56;;;;;;;;;;;;;;;;;;6292691;22;19919;-88
2022/08/19 08:59:23;;;;;;;;;;;;;;;;;;6265537;22;20335;-89
2022/08/19 09:01:49;;;;;;;;;;;;;;;;;;6239727;22;20247;-89
2022/08/19 09:04:15;;;;;;;;;;;;;;;;;;6269131;22;20357;-90
2022/08/19 09:06:44;;;;;;;;;;;;;;;;;;6291895;22;19923;-89
2022/08/19 09:09:12;;;;;;;;;;;;;;;;;;6241366;22;19922;-89
2022/08/19 09:11:38;;;;;;;;;;;;;;;;;;6239482;22;20303;-90
2022/08/19 09:14:05;;;;;;;;;;;;;;;;;;6269293;22;19926;-90
2022/08/19 09:16:32;;;;;;;;;;;;;;;;;;6239498;22;19950;-88
2022/08/19 09:18:59;;;;;;;;;;;;;;;;;;6240607;22;19965;-89
2022/08/19 09:21:27;;;;;;;;;;;;;;;;;;6293007;22;19925;-89
2022/08/19 09:23:55;;;;;;;;;;;;;;;;;;6268294;22;19994;-89
2022/08/19 09:26:25;;;;;;;;;;;;;;;;;;6264018;22;20787;-88
2022/08/19 09:28:52;;;;;;;;;;;;;;;;;;6269071;22;19997;-89
2022/08/19 09:31:23;;;;;;;;;;;;;;;;;;6241796;22;19926;-89
2022/08/19 09:33:49;;;;;;;;;;;;;;;;;;6240795;22;19926;-89
2022/08/19 09:36:15;;;;;;;;;;;;;;;;;;6234708;22;19918;-89
2022/08/19 09:38:42;;;;;;;;;;;;;;;;;;6262397;22;20363;-89
2022/08/19 09:41:11;;;;;;;;;;;;;;;;;;6239408;22;19977;-89
2022/08/19 09:43:47;;;;;;;;;;;;;;;;;;6292738;22;19926;-89
2022/08/19 09:46:28;;;;;;;;;;;;;;;;;;6256141;22;19962;-91
2022/08/19 09:48:56;;;;;;;;;;;;;;;;;;6212393;22;20344;-91
2022/08/19 09:51:24;;;;;;;;;;;;;;;;;;6232772;22;19919;-91
2022/08/19 09:53:53;;;;;;;;;;;;;;;;;;6236377;22;19950;-91
2022/08/19 09:56:23;;;;;;;;;;;;;;;;;;6233272;22;20280;-92
2022/08/19 09:58:49;;;;;;;;;;;;;;;;;;6244668;22;19927;-91
2022/08/19 10:01:15;;;;;;;;;;;;;;;;;;6221972;22;19915;-91
2022/08/19 10:03:41;;;;;;;;;;;;;;;;;;6209882;22;20073;-91
2022/08/19 10:06:08;;;;;;;;;;;;;;;;;;6210439;22;19926;-91
2022/08/19 10:08:36;;;;;;;;;;;;;;;;;;6208499;22;19986;-91
2022/08/19 10:11:22;;;;;;;;;;;;;;;;;;6235428;22;19935;-90
2022/08/19 10:13:49;;;;;;;;;;;;;;;;;;6227281;22;20006;-91
2022/08/19 10:16:15;;;;;;;;;;;;;;;;;;6233097;22;20752;-91
2022/08/19 10:18:43;;;;;;;;;;;;;;;;;;6237707;22;19922;-91
2022/08/19 10:21:10;;;;;;;;;;;;;;;;;;6239663;22;19994;-90
2022/08/19 10:23:37;;;;;;;;;;;;;;;;;;6239122;22;19915;-91
2022/08/19 10:26:05;;;;;;;;;;;;;;;;;;6244089;22;20232;-89
2022/08/19 10:28:33;;;;;;;;;;;;;;;;;;6267427;22;20293;-90
2022/08/19 10:31:00;;;;;;;;;;;;;;;;;;6270124;22;19915;-91
2022/08/19 10:33:47;;;;;;;;;;;;;;;;;;6267435;22;20276;-90
2022/08/19 10:36:17;;;;;;;;;;;;;;;;;;6239490;22;20255;-90
2022/08/19 10:38:45;;;;;;;;;;;;;;;;;;6262951;22;19985;-89
2022/08/19 10:41:12;;;;;;;;;;;;;;;;;;6269313;22;19918;-91
2022/08/19 10:43:44;;;;;;;;;;;;;;;;;;6262785;22;19919;-91
2022/08/19 10:46:11;;;;;;;;;;;;;;;;;;6242640;22;19914;-90
2022/08/19 10:48:38;;;;;;;;;;;;;;;;;;6239136;22;19936;-91
2022/08/19 10:53:53;;;;;;;;;;;;;;;;;;6266402;22;19919;-91
2022/08/19 10:59:08;;;;;;;;;;;;;;;;;;6264129;22;19922;-90
2022/08/19 11:01:41;;;;;;;;;;;;;;;;;;6265205;22;20013;-89
2022/08/19 11:04:17;;;;;;;;;;;;;;;;;;6238706;22;19972;-89
2022/08/19 11:06:47;;;;;;;;;;;;;;;;;;6223498;22;20043;-90
2022/08/19 11:09:20;;;;;;;;;;;;;;;;;;6228042;23;19919;-90
2022/08/19 11:12:01;;;;;;;;;;;;;;;;;;6202105;23;19920;-90
2022/08/19 11:14:34;;;;;;;;;;;;;;;;;;6194899;23;19926;-90
2022/08/19 11:17:01;;;;;;;;;;;;;;;;;;6201336;23;20003;-92
2022/08/19 11:19:27;;;;;;;;;;;;;;;;;;6169797;23;20348;-89
2022/08/19 11:21:54;;;;;;;;;;;;;;;;;;6175317;23;19939;-90
2022/08/19 11:24:21;;;;;;;;;;;;;;;;;;6171748;23;20128;-89
2022/08/19 11:26:51;;;;;;;;;;;;;;;;;;6199246;23;19919;-91
2022/08/19 11:29:18;;;;;;;;;;;;;;;;;;6196468;23;19919;-91
2022/08/19 11:31:44;;;;;;;;;;;;;;;;;;6172622;23;20001;-91
2022/08/19 11:34:17;;;;;;;;;;;;;;;;;;6223341;23;19920;-91
2022/08/19 11:36:48;;;;;;;;;;;;;;;;;;6173574;22;19991;-91
2022/08/19 11:39:15;;;;;;;;;;;;;;;;;;6230390;22;20138;-90
2022/08/19 11:41:41;;;;;;;;;;;;;;;;;;6262710;22;20481;-92
2022/08/19 11:44:08;;;;;;;;;;;;;;;;;;6240036;22;20213;-91
2022/08/19 11:46:35;;;;;;;;;;;;;;;;;;6211287;22;20002;-91
2022/08/19 11:49:03;;;;;;;;;;;;;;;;;;6239330;22;19922;-92
2022/08/19 11:51:36;;;;;;;;;;;;;;;;;;6237612;22;19930;-93
2022/08/19 11:54:04;;;;;;;;;;;;;;;;;;6216541;22;19939;-91
2022/08/19 11:56:31;;;;;;;;;;;;;;;;;;6212304;22;19919;-93
2022/08/19 11:58:57;;;;;;;;;;;;;;;;;;6240956;22;20619;-91
2022/08/19 12:01:43;;;;;;;;;;;;;;;;;;6263109;22;19973;-91
2022/08/19 12:04:09;;;;;;;;;;;;;;;;;;6240945;22;19915;-91
2022/08/19 12:06:45;;;;;;;;;;;;;;;;;;6212079;22;19923;-92
2022/08/19 12:09:14;;;;;;;;;;;;;;;;;;6212354;22;19919;-93
2022/08/19 12:11:41;;;;;;;;;;;;;;;;;;6213279;22;20399;-91
2022/08/19 12:14:08;;;;;;;;;;;;;;;;;;6217041;22;19919;-91
2022/08/19 12:16:35;;;;;;;;;;;;;;;;;;6237214;22;19930;-92
2022/08/19 12:19:03;;;;;;;;;;;;;;;;;;6215794;22;19931;-92
2022/08/19 12:21:31;;;;;;;;;;;;;;;;;;6237606;22;19949;-92
2022/08/19 12:24:09;;;;;;;;;;;;;;;;;;6267030;22;19915;-91
2022/08/19 12:26:36;;;;;;;;;;;;;;;;;;6238667;22;20014;-91
2022/08/19 12:29:02;;;;;;;;;;;;;;;;;;6216125;22;19923;-92
2022/08/19 12:31:35;;;;;;;;;;;;;;;;;;6234922;22;19923;-92
2022/08/19 12:34:10;;;;;;;;;;;;;;;;;;6241829;22;20332;-92
2022/08/19 12:36:37;;;;;;;;;;;;;;;;;;6234346;22;19922;-91
2022/08/19 12:39:04;;;;;;;;;;;;;;;;;;6268477;22;19923;-90
2022/08/19 12:41:30;;;;;;;;;;;;;;;;;;6243596;22;20323;-91
2022/08/19 12:43:58;;;;;;;;;;;;;;;;;;6272189;22;19915;-91
2022/08/19 12:46:25;;;;;;;;;;;;;;;;;;6242778;22;19919;-91
2022/08/19 12:48:52;;;;;;;;;;;;;;;;;;6243180;22;19991;-91
2022/08/19 12:51:19;;;;;;;;;;;;;;;;;;6270049;22;20041;-92
2022/08/19 12:54:01;;;;;;;;;;;;;;;;;;6233595;23;19926;-91
2022/08/19 12:56:27;;;;;;;;;;;;;;;;;;6205341;23;20002;-91
2022/08/19 12:58:55;;;;;;;;;;;;;;;;;;6183437;23;19930;-93
2022/08/19 13:01:23;;;;;;;;;;;;;;;;;;6204607;23;19920;-92
2022/08/19 13:03:49;;;;;;;;;;;;;;;;;;6207598;23;19941;-91
2022/08/19 13:06:18;;;;;;;;;;;;;;;;;;6206611;23;19920;-91
2022/08/19 13:08:45;;;;;;;;;;;;;;;;;;6232127;23;19926;-91
2022/08/19 13:11:12;;;;;;;;;;;;;;;;;;6234404;23;20012;-91
2022/08/19 13:13:40;;;;;;;;;;;;;;;;;;6203297;23;19954;-91
2022/08/19 13:16:11;;;;;;;;;;;;;;;;;;6231307;23;20285;-91
2022/08/19 13:18:39;;;;;;;;;;;;;;;;;;6204755;23;20288;-92
2022/08/19 13:21:06;;;;;;;;;;;;;;;;;;6181280;23;20030;-91
2022/08/19 13:23:33;;;;;;;;;;;;;;;;;;6204996;23;19915;-91
2022/08/19 13:26:01;;;;;;;;;;;;;;;;;;6264978;22;19915;-92
2022/08/19 13:33:10;;;;;;;;;;;;;;;;;;6267743;22;19950;-91
2022/08/19 13:34:05;;;;;;;;;;;;;;;;;;6269564;22;19922;-92
2022/08/19 13:36:47;;;;;;;;;;;;;;;;;;6275042;22;20388;-91
2022/08/19 13:39:14;;;;;;;;;;;;;;;;;;6243293;22;20244;-91
2022/08/19 13:41:41;;;;;;;;;;;;;;;;;;6241463;22;19954;-92
2022/08/19 13:44:08;;;;;;;;;;;;;;;;;;6272227;22;19915;-91
2022/08/19 13:46:36;;;;;;;;;;;;;;;;;;6240087;22;19930;-92
2022/08/19 13:49:04;;;;;;;;;;;;;;;;;;6273421;22;19994;-92
2022/08/19 13:51:31;;;;;;;;;;;;;;;;;;6296862;22;19918;-92
2022/08/19 13:53:58;;;;;;;;;;;;;;;;;;6301098;22;19985;-91
2022/08/19 13:56:25;;;;;;;;;;;;;;;;;;6299360;22;20014;-93
2022/08/19 13:58:53;;;;;;;;;;;;;;;;;;6247802;22;19923;-91
2022/08/19 14:01:30;;;;;;;;;;;;;;;;;;6273865;22;19922;-92
2022/08/19 14:03:57;;;;;;;;;;;;;;;;;;6274687;22;19919;-91
2022/08/19 14:06:25;;;;;;;;;;;;;;;;;;6270041;22;19984;-92
2022/08/19 14:08:52;;;;;;;;;;;;;;;;;;6273729;22;19937;-92
2022/08/19 14:11:18;;;;;;;;;;;;;;;;;;6274866;22;19919;-92
2022/08/19 14:13:46;;;;;;;;;;;;;;;;;;6273179;22;19923;-92
2022/08/19 14:16:12;;;;;;;;;;;;;;;;;;6245641;22;19926;-92
2022/08/19 14:18:39;;;;;;;;;;;;;;;;;;6245923;22;19945;-91
2022/08/19 14:21:07;;;;;;;;;;;;;;;;;;6274931;22;19915;-91
2022/08/19 14:23:33;;;;;;;;;;;;;;;;;;6244734;22;20335;-94
2022/08/19 14:26:00;;;;;;;;;;;;;;;;;;6246053;22;19919;-91
2022/08/19 14:28:28;;;;;;;;;;;;;;;;;;6245673;22;20251;-92
2022/08/19 14:30:55;;;;;;;;;;;;;;;;;;6272890;22;19918;-91
2022/08/19 14:33:21;;;;;;;;;;;;;;;;;;6246095;22;19915;-92
2022/08/19 14:35:53;;;;;;;;;;;;;;;;;;6247987;22;19985;-92
2022/08/19 14:38:19;;;;;;;;;;;;;;;;;;6273090;22;20292;-92
2022/08/19 14:40:46;;;;;;;;;;;;;;;;;;6247079;22;19918;-92
2022/08/19 14:43:19;;;;;;;;;;;;;;;;;;6271294;22;19969;-93
2022/08/19 14:45:47;;;;;;;;;;;;;;;;;;6270119;22;19919;-92
2022/08/19 14:48:14;;;;;;;;;;;;;;;;;;6270289;22;19958;-93
2022/08/19 14:50:55;;;;;;;;;;;;;;;;;;6200004;23;20359;-92
2022/08/19 14:53:22;;;;;;;;;;;;;;;;;;6148140;23;19920;-92
2022/08/19 14:55:54;;;;;;;;;;;;;;;;;;6171821;23;19927;-91
2022/08/19 14:58:20;;;;;;;;;;;;;;;;;;6150385;23;19919;-94
2022/08/19 15:00:47;;;;;;;;;;;;;;;;;;6196501;23;20292;-91
2022/08/19 15:03:15;;;;;;;;;;;;;;;;;;6174465;23;19923;-92
2022/08/19 15:05:42;;;;;;;;;;;;;;;;;;6152797;23;19919;-91
2022/08/19 15:08:09;;;;;;;;;;;;;;;;;;6154399;23;19934;-92
2022/08/19 15:10:37;;;;;;;;;;;;;;;;;;6149518;23;19922;-91
2022/08/19 15:13:03;;;;;;;;;;;;;;;;;;6177885;23;20426;-92
2022/08/19 15:15:37;;;;;;;;;;;;;;;;;;6175320;23;20264;-92
2022/08/19 15:18:04;;;;;;;;;;;;;;;;;;6172203;23;19927;-93
2022/08/19 15:20:30;;;;;;;;;;;;;;;;;;6168482;23;19947;-94
2022/08/19 15:23:11;;;;;;;;;;;;;;;;;;6194802;23;19930;-93
2022/08/19 15:25:48;;;;;;;;;;;;;;;;;;6146538;23;20394;-93
2022/08/19 15:31:54;;;;;;;;;;;;;;;;;;6119400;23;20277;-94
2022/08/19 15:34:22;;;;;;;;;;;;;;;;;;6104265;23;20064;-94
2022/08/19 15:37:17;;;;;;;;;;;;;;;;;;6132325;23;19968;-94
2022/08/19 15:39:45;;;;;;;;;;;;;;;;;;6106973;23;19952;-93
2022/08/19 15:42:16;;;;;;;;;;;;;;;;;;6133826;23;19923;-90
2022/08/19 15:44:43;;;;;;;;;;;;;;;;;;6085959;23;20906;-90
2022/08/19 15:47:18;;;;;;;;;;;;;;;;;;6091237;23;19921;-91
2022/08/19 15:49:45;;;;;;;;;;;;;;;;;;6132649;23;19920;-91
2022/08/19 15:52:13;;;;;;;;;;;;;;;;;;6137313;23;19920;-91
2022/08/19 15:54:40;;;;;;;;;;;;;;;;;;6116656;23;20347;-91
2022/08/19 16:08:12;;;;;;;;;;;;;;;;;;6264499;22;19951;-91
2022/08/19 16:10:38;;;;;;;;;;;;;;;;;;6239710;22;19993;-91
2022/08/19 16:13:04;;;;;;;;;;;;;;;;;;6241781;22;19997;-92
2022/08/19 16:15:32;;;;;;;;;;;;;;;;;;6261568;22;19919;-90
2022/08/19 16:18:38;;;;;;;;;;;;;;;;;;;;;
2022/08/19 16:21:30;;;;;;;;;;;;;;;;;;6300658;22;19925;-91
2022/08/19 16:27:00;;;;;;;;;;;;;;;;;;6229133;23;20371;-91
2022/08/19 16:29:58;;;;;;;;;;;;;;;;;;6105391;23;19932;-91
2022/08/19 16:32:32;;;;;;;;;;;;;;;;;;6056142;23;19944;-91
2022/08/19 16:44:23;;;;;;;;;;;;;;;;;;5947684;24;19919;-91
2022/08/19 16:47:44;;;;;;;;;;;;;;;;;;5936822;24;20002;-91
2022/08/19 16:50:48;;;;;;;;;;;;;;;;;;5906686;24;19923;-94
2022/08/19 16:56:38;;;;;;;;;;;;;;;;;;5889312;24;19987;-93
2022/08/19 16:59:27;;;;;;;;;;;;;;;;;;5903608;24;19931;-91
2022/08/19 17:05:31;;;;;;;;;;;;;;;;;;5899617;24;19918;-90
2022/08/19 17:08:08;;;;;;;;;;;;;;;;;;;;;
2022/08/19 17:17:47;;;;;;;;;;;;;;;;;;5944494;23;19974;-91
2022/08/19 17:50:34;;;;;;;;;;;;;;;;;;;;;
2022/08/19 18:05:25;;;;;;;;;;;;;;;;;;6117614;23;19936;-90
2022/08/19 18:11:22;;;;;;;;;;;;;;;;;;6051362;23;20732;-91
2022/08/19 18:13:49;;;;;;;;;;;;;;;;;;6023060;23;19993;-90
2022/08/19 18:16:17;;;;;;;;;;;;;;;;;;6017855;23;21345;-89
2022/08/19 18:18:48;;;;;;;;;;;;;;;;;;6096240;23;19924;-90
2022/08/19 18:21:15;;;;;;;;;;;;;;;;;;6138103;23;20036;-90
2022/08/19 18:23:41;;;;;;;;;;;;;;;;;;6165111;23;19927;-89
2022/08/19 18:26:09;;;;;;;;;;;;;;;;;;6168049;23;19931;-90
2022/08/19 18:28:38;;;;;;;;;;;;;;;;;;6163371;23;19977;-90
2022/08/19 18:31:04;;;;;;;;;;;;;;;;;;6164797;23;20323;-91
2022/08/19 18:33:37;;;;;;;;;;;;;;;;;;6253933;22;20177;-90
2022/08/19 18:36:04;;;;;;;;;;;;;;;;;;6205639;22;20311;-92
2022/08/19 18:49:40;;;;;;;;;;;;;;;;;;6199205;23;20379;-89
2022/08/19 18:52:06;;;;;;;;;;;;;;;;;;6201903;23;19916;-90
2022/08/19 18:54:32;;;;;;;;;;;;;;;;;;6197253;23;19926;-90
2022/08/19 18:56:59;;;;;;;;;;;;;;;;;;6227291;23;20304;-89
2022/08/19 18:59:26;;;;;;;;;;;;;;;;;;6198542;23;20352;-90